sensor_id;sensor_type;location;lat;lon;timestamp;P1;durP1;ratioP1;P2;durP2;ratioP2
19038;SDS011;9652;49.014;12.052;2024-01-30T00:01:18;7.97;;;7.10;;
19038;SDS011;9652;49.014;12.052;2024-01-30T00:03:45;11.60;;;7.07;;
19038;SDS011;9652;49.014;12.052;2024-01-30T00:06:12;10.03;;;7.87;;
19038;SDS011;9652;49.014;12.052;2024-01-30T00:08:39;10.87;;;8.03;;
19038;SDS011;9652;49.014;12.052;2024-01-30T00:11:07;9.27;;;7.30;;
19038;SDS011;9652;49.014;12.052;2024-01-30T00:13:34;10.40;;;7.90;;
19038;SDS011;9652;49.014;12.052;2024-01-30T00:16:01;8.20;;;7.07;;
19038;SDS011;9652;49.014;12.052;2024-01-30T00:18:30;9.57;;;7.73;;
19038;SDS011;9652;49.014;12.052;2024-01-30T00:20:57;9.23;;;8.20;;
19038;SDS011;9652;49.014;12.052;2024-01-30T00:23:24;11.27;;;7.90;;
19038;SDS011;9652;49.014;12.052;2024-01-30T00:25:51;9.73;;;7.70;;
19038;SDS011;9652;49.014;12.052;2024-01-30T00:28:18;8.33;;;7.53;;
19038;SDS011;9652;49.014;12.052;2024-01-30T00:30:45;8.87;;;7.10;;
19038;SDS011;9652;49.014;12.052;2024-01-30T00:33:12;8.93;;;7.23;;
19038;SDS011;9652;49.014;12.052;2024-01-30T00:35:41;10.67;;;7.57;;
19038;SDS011;9652;49.014;12.052;2024-01-30T00:38:08;8.50;;;7.60;;
19038;SDS011;9652;49.014;12.052;2024-01-30T00:40:35;8.87;;;7.13;;
19038;SDS011;9652;49.014;12.052;2024-01-30T00:43:03;8.03;;;7.07;;
19038;SDS011;9652;49.014;12.052;2024-01-30T00:45:30;9.33;;;7.13;;
19038;SDS011;9652;49.014;12.052;2024-01-30T00:47:57;9.00;;;7.67;;
19038;SDS011;9652;49.014;12.052;2024-01-30T00:50:24;11.63;;;7.20;;
19038;SDS011;9652;49.014;12.052;2024-01-30T00:52:53;8.13;;;7.33;;
19038;SDS011;9652;49.014;12.052;2024-01-30T00:55:20;9.53;;;7.37;;
19038;SDS011;9652;49.014;12.052;2024-01-30T00:57:47;9.53;;;7.90;;
19038;SDS011;9652;49.014;12.052;2024-01-30T01:00:14;10.87;;;7.67;;
19038;SDS011;9652;49.014;12.052;2024-01-30T01:02:42;9.40;;;7.17;;
19038;SDS011;9652;49.014;12.052;2024-01-30T01:05:09;8.87;;;7.20;;
19038;SDS011;9652;49.014;12.052;2024-01-30T01:07:37;8.37;;;7.43;;
19038;SDS011;9652;49.014;12.052;2024-01-30T01:10:07;9.30;;;8.40;;
19038;SDS011;9652;49.014;12.052;2024-01-30T01:12:34;11.80;;;8.07;;
19038;SDS011;9652;49.014;12.052;2024-01-30T01:15:01;9.30;;;7.90;;
19038;SDS011;9652;49.014;12.052;2024-01-30T01:17:28;9.70;;;7.03;;
19038;SDS011;9652;49.014;12.052;2024-01-30T01:19:55;11.23;;;8.20;;
19038;SDS011;9652;49.014;12.052;2024-01-30T01:22:23;8.80;;;7.27;;
19038;SDS011;9652;49.014;12.052;2024-01-30T01:24:50;10.20;;;7.57;;
19038;SDS011;9652;49.014;12.052;2024-01-30T01:27:18;9.17;;;8.23;;
19038;SDS011;9652;49.014;12.052;2024-01-30T01:29:46;10.83;;;8.50;;
19038;SDS011;9652;49.014;12.052;2024-01-30T01:32:13;10.10;;;7.83;;
19038;SDS011;9652;49.014;12.052;2024-01-30T01:34:40;9.33;;;7.80;;
19038;SDS011;9652;49.014;12.052;2024-01-30T01:37:07;8.53;;;7.20;;
19038;SDS011;9652;49.014;12.052;2024-01-30T01:39:34;9.30;;;8.33;;
19038;SDS011;9652;49.014;12.052;2024-01-30T01:42:02;9.37;;;7.90;;
19038;SDS011;9652;49.014;12.052;2024-01-30T01:44:31;11.30;;;8.37;;
19038;SDS011;9652;49.014;12.052;2024-01-30T01:46:58;10.13;;;7.50;;
19038;SDS011;9652;49.014;12.052;2024-01-30T01:49:25;9.23;;;7.10;;
19038;SDS011;9652;49.014;12.052;2024-01-30T01:51:55;8.80;;;7.00;;
19038;SDS011;9652;49.014;12.052;2024-01-30T01:54:24;12.33;;;7.57;;
19038;SDS011;9652;49.014;12.052;2024-01-30T01:56:53;8.97;;;7.50;;
19038;SDS011;9652;49.014;12.052;2024-01-30T01:59:20;10.57;;;7.67;;
19038;SDS011;9652;49.014;12.052;2024-01-30T02:01:52;8.93;;;7.97;;
19038;SDS011;9652;49.014;12.052;2024-01-30T02:04:21;8.97;;;7.27;;
19038;SDS011;9652;49.014;12.052;2024-01-30T02:06:48;11.00;;;8.13;;
19038;SDS011;9652;49.014;12.052;2024-01-30T02:09:16;11.53;;;8.27;;
19038;SDS011;9652;49.014;12.052;2024-01-30T02:11:43;9.23;;;7.30;;
19038;SDS011;9652;49.014;12.052;2024-01-30T02:14:11;8.93;;;6.90;;
19038;SDS011;9652;49.014;12.052;2024-01-30T02:16:38;11.80;;;8.27;;
19038;SDS011;9652;49.014;12.052;2024-01-30T02:19:07;11.37;;;8.10;;
19038;SDS011;9652;49.014;12.052;2024-01-30T02:21:35;9.97;;;7.70;;
19038;SDS011;9652;49.014;12.052;2024-01-30T02:24:03;10.40;;;9.03;;
19038;SDS011;9652;49.014;12.052;2024-01-30T02:26:32;8.63;;;7.83;;
19038;SDS011;9652;49.014;12.052;2024-01-30T02:28:59;12.13;;;8.10;;
19038;SDS011;9652;49.014;12.052;2024-01-30T02:31:26;8.67;;;7.83;;
19038;SDS011;9652;49.014;12.052;2024-01-30T02:33:53;9.53;;;7.80;;
19038;SDS011;9652;49.014;12.052;2024-01-30T02:36:20;10.50;;;8.60;;
19038;SDS011;9652;49.014;12.052;2024-01-30T02:38:48;10.73;;;7.80;;
19038;SDS011;9652;49.014;12.052;2024-01-30T02:41:15;8.80;;;7.90;;
19038;SDS011;9652;49.014;12.052;2024-01-30T02:43:42;15.07;;;8.10;;
19038;SDS011;9652;49.014;12.052;2024-01-30T02:46:09;11.77;;;8.13;;
19038;SDS011;9652;49.014;12.052;2024-01-30T02:48:36;10.90;;;8.03;;
19038;SDS011;9652;49.014;12.052;2024-01-30T02:51:04;14.13;;;7.93;;
19038;SDS011;9652;49.014;12.052;2024-01-30T02:53:32;8.93;;;7.60;;
19038;SDS011;9652;49.014;12.052;2024-01-30T02:56:00;9.50;;;8.47;;
19038;SDS011;9652;49.014;12.052;2024-01-30T02:58:28;14.27;;;8.90;;
19038;SDS011;9652;49.014;12.052;2024-01-30T03:00:55;9.90;;;7.87;;
19038;SDS011;9652;49.014;12.052;2024-01-30T03:03:22;12.40;;;9.80;;
19038;SDS011;9652;49.014;12.052;2024-01-30T03:05:49;10.67;;;8.53;;
19038;SDS011;9652;49.014;12.052;2024-01-30T03:08:16;11.10;;;8.03;;
19038;SDS011;9652;49.014;12.052;2024-01-30T03:10:43;11.23;;;9.00;;
19038;SDS011;9652;49.014;12.052;2024-01-30T03:13:11;11.83;;;9.10;;
19038;SDS011;9652;49.014;12.052;2024-01-30T03:15:39;11.47;;;9.20;;
19038;SDS011;9652;49.014;12.052;2024-01-30T03:18:06;13.53;;;9.30;;
19038;SDS011;9652;49.014;12.052;2024-01-30T03:20:33;10.87;;;7.63;;
19038;SDS011;9652;49.014;12.052;2024-01-30T03:23:00;11.40;;;8.70;;
19038;SDS011;9652;49.014;12.052;2024-01-30T03:25:27;11.77;;;9.33;;
19038;SDS011;9652;49.014;12.052;2024-01-30T03:27:55;10.13;;;8.30;;
19038;SDS011;9652;49.014;12.052;2024-01-30T03:30:23;10.67;;;8.67;;
19038;SDS011;9652;49.014;12.052;2024-01-30T03:32:50;9.77;;;7.73;;
19038;SDS011;9652;49.014;12.052;2024-01-30T03:35:18;11.27;;;8.60;;
19038;SDS011;9652;49.014;12.052;2024-01-30T03:37:45;11.00;;;8.07;;
19038;SDS011;9652;49.014;12.052;2024-01-30T03:40:12;9.70;;;7.73;;
19038;SDS011;9652;49.014;12.052;2024-01-30T03:42:40;11.57;;;8.73;;
19038;SDS011;9652;49.014;12.052;2024-01-30T03:45:07;10.93;;;8.77;;
19038;SDS011;9652;49.014;12.052;2024-01-30T03:47:36;10.30;;;8.47;;
19038;SDS011;9652;49.014;12.052;2024-01-30T03:50:04;9.53;;;7.93;;
19038;SDS011;9652;49.014;12.052;2024-01-30T03:52:31;9.87;;;8.37;;
19038;SDS011;9652;49.014;12.052;2024-01-30T03:54:58;11.70;;;9.20;;
19038;SDS011;9652;49.014;12.052;2024-01-30T03:57:26;10.53;;;8.27;;
19038;SDS011;9652;49.014;12.052;2024-01-30T03:59:53;8.70;;;7.77;;
19038;SDS011;9652;49.014;12.052;2024-01-30T04:02:20;9.70;;;7.97;;
19038;SDS011;9652;49.014;12.052;2024-01-30T04:04:48;9.40;;;7.47;;
19038;SDS011;9652;49.014;12.052;2024-01-30T04:07:15;11.73;;;8.43;;
19038;SDS011;9652;49.014;12.052;2024-01-30T04:09:42;11.87;;;8.27;;
19038;SDS011;9652;49.014;12.052;2024-01-30T04:12:09;11.77;;;9.77;;
19038;SDS011;9652;49.014;12.052;2024-01-30T04:14:37;9.90;;;7.43;;
19038;SDS011;9652;49.014;12.052;2024-01-30T04:17:06;10.47;;;7.80;;
19038;SDS011;9652;49.014;12.052;2024-01-30T04:19:36;9.47;;;8.17;;
19038;SDS011;9652;49.014;12.052;2024-01-30T04:22:05;9.63;;;7.60;;
19038;SDS011;9652;49.014;12.052;2024-01-30T04:24:32;9.90;;;8.33;;
19038;SDS011;9652;49.014;12.052;2024-01-30T04:26:59;9.33;;;8.33;;
19038;SDS011;9652;49.014;12.052;2024-01-30T04:29:26;11.63;;;8.83;;
19038;SDS011;9652;49.014;12.052;2024-01-30T04:31:53;11.70;;;8.77;;
19038;SDS011;9652;49.014;12.052;2024-01-30T04:34:20;10.10;;;8.50;;
19038;SDS011;9652;49.014;12.052;2024-01-30T04:36:47;12.50;;;9.37;;
19038;SDS011;9652;49.014;12.052;2024-01-30T04:39:16;10.97;;;8.87;;
19038;SDS011;9652;49.014;12.052;2024-01-30T04:41:43;11.73;;;8.50;;
19038;SDS011;9652;49.014;12.052;2024-01-30T04:44:10;9.93;;;7.93;;
19038;SDS011;9652;49.014;12.052;2024-01-30T04:46:37;12.07;;;9.23;;
19038;SDS011;9652;49.014;12.052;2024-01-30T04:49:04;10.77;;;8.73;;
19038;SDS011;9652;49.014;12.052;2024-01-30T04:51:32;9.60;;;8.60;;
19038;SDS011;9652;49.014;12.052;2024-01-30T04:53:59;11.27;;;8.27;;
19038;SDS011;9652;49.014;12.052;2024-01-30T04:56:28;11.17;;;9.70;;
19038;SDS011;9652;49.014;12.052;2024-01-30T04:58:56;9.70;;;8.73;;
19038;SDS011;9652;49.014;12.052;2024-01-30T05:01:23;11.40;;;8.67;;
19038;SDS011;9652;49.014;12.052;2024-01-30T05:03:50;12.33;;;9.93;;
19038;SDS011;9652;49.014;12.052;2024-01-30T05:06:23;10.67;;;9.03;;
19038;SDS011;9652;49.014;12.052;2024-01-30T05:30:42;12.17;;;8.97;;
19038;SDS011;9652;49.014;12.052;2024-01-30T05:33:09;10.40;;;8.97;;
19038;SDS011;9652;49.014;12.052;2024-01-30T05:35:37;14.33;;;10.13;;
19038;SDS011;9652;49.014;12.052;2024-01-30T05:38:04;13.00;;;9.63;;
19038;SDS011;9652;49.014;12.052;2024-01-30T05:52:55;12.63;;;9.57;;
19038;SDS011;9652;49.014;12.052;2024-01-30T07:08:23;19.17;;;12.20;;
19038;SDS011;9652;49.014;12.052;2024-01-30T07:10:56;15.50;;;11.30;;
19038;SDS011;9652;49.014;12.052;2024-01-30T07:13:24;16.17;;;11.67;;
19038;SDS011;9652;49.014;12.052;2024-01-30T07:15:51;15.97;;;11.57;;
19038;SDS011;9652;49.014;12.052;2024-01-30T07:18:24;18.00;;;12.00;;
19038;SDS011;9652;49.014;12.052;2024-01-30T07:20:58;14.57;;;11.67;;
19038;SDS011;9652;49.014;12.052;2024-01-30T07:23:33;17.00;;;11.70;;
19038;SDS011;9652;49.014;12.052;2024-01-30T07:26:04;17.03;;;11.67;;
19038;SDS011;9652;49.014;12.052;2024-01-30T07:28:35;18.83;;;11.10;;
19038;SDS011;9652;49.014;12.052;2024-01-30T07:31:05;13.07;;;10.67;;
19038;SDS011;9652;49.014;12.052;2024-01-30T07:33:32;18.37;;;12.73;;
19038;SDS011;9652;49.014;12.052;2024-01-30T07:35:59;20.90;;;12.27;;
19038;SDS011;9652;49.014;12.052;2024-01-30T07:46:31;19.33;;;12.07;;
19038;SDS011;9652;49.014;12.052;2024-01-30T07:54:49;14.63;;;10.83;;
19038;SDS011;9652;49.014;12.052;2024-01-30T07:57:17;16.33;;;10.90;;
19038;SDS011;9652;49.014;12.052;2024-01-30T08:18:43;16.50;;;9.97;;
19038;SDS011;9652;49.014;12.052;2024-01-30T08:24:30;16.07;;;11.00;;
19038;SDS011;9652;49.014;12.052;2024-01-30T08:27:02;16.23;;;10.93;;
19038;SDS011;9652;49.014;12.052;2024-01-30T08:48:46;18.57;;;12.13;;
19038;SDS011;9652;49.014;12.052;2024-01-30T08:51:14;14.60;;;10.63;;
19038;SDS011;9652;49.014;12.052;2024-01-30T08:53:41;18.00;;;11.83;;
19038;SDS011;9652;49.014;12.052;2024-01-30T08:56:08;18.27;;;12.37;;
19038;SDS011;9652;49.014;12.052;2024-01-30T08:58:35;19.53;;;11.90;;
19038;SDS011;9652;49.014;12.052;2024-01-30T09:01:02;18.33;;;12.50;;
19038;SDS011;9652;49.014;12.052;2024-01-30T09:03:30;18.20;;;12.37;;
19038;SDS011;9652;49.014;12.052;2024-01-30T09:05:59;19.70;;;12.47;;
19038;SDS011;9652;49.014;12.052;2024-01-30T09:08:26;17.67;;;12.50;;
19038;SDS011;9652;49.014;12.052;2024-01-30T09:10:53;20.13;;;11.83;;
19038;SDS011;9652;49.014;12.052;2024-01-30T09:13:21;19.80;;;12.50;;
19038;SDS011;9652;49.014;12.052;2024-01-30T09:15:48;19.77;;;13.27;;
19038;SDS011;9652;49.014;12.052;2024-01-30T09:18:15;19.73;;;12.93;;
19038;SDS011;9652;49.014;12.052;2024-01-30T09:20:42;17.70;;;11.23;;
19038;SDS011;9652;49.014;12.052;2024-01-30T09:23:12;17.77;;;12.33;;
19038;SDS011;9652;49.014;12.052;2024-01-30T09:25:39;18.17;;;12.30;;
19038;SDS011;9652;49.014;12.052;2024-01-30T09:28:06;19.13;;;12.23;;
19038;SDS011;9652;49.014;12.052;2024-01-30T09:30:33;18.53;;;12.30;;
19038;SDS011;9652;49.014;12.052;2024-01-30T09:33:01;19.20;;;12.43;;
19038;SDS011;9652;49.014;12.052;2024-01-30T10:10:38;17.40;;;12.03;;
19038;SDS011;9652;49.014;12.052;2024-01-30T10:31:46;19.03;;;12.00;;
19038;SDS011;9652;49.014;12.052;2024-01-30T10:34:24;18.57;;;12.77;;
19038;SDS011;9652;49.014;12.052;2024-01-30T10:36:51;19.93;;;11.37;;
19038;SDS011;9652;49.014;12.052;2024-01-30T10:39:31;21.07;;;13.17;;
19038;SDS011;9652;49.014;12.052;2024-01-30T10:42:05;19.17;;;12.77;;
19038;SDS011;9652;49.014;12.052;2024-01-30T10:44:39;21.07;;;13.37;;
19038;SDS011;9652;49.014;12.052;2024-01-30T10:47:21;20.10;;;13.40;;
19038;SDS011;9652;49.014;12.052;2024-01-30T10:49:54;20.87;;;12.90;;
19038;SDS011;9652;49.014;12.052;2024-01-30T11:10:34;17.13;;;12.47;;
19038;SDS011;9652;49.014;12.052;2024-01-30T11:14:04;19.10;;;12.80;;
19038;SDS011;9652;49.014;12.052;2024-01-30T11:20:25;18.13;;;12.40;;
19038;SDS011;9652;49.014;12.052;2024-01-30T11:23:30;18.30;;;12.07;;
19038;SDS011;9652;49.014;12.052;2024-01-30T11:29:33;16.97;;;11.47;;
19038;SDS011;9652;49.014;12.052;2024-01-30T11:32:02;18.20;;;13.13;;
19038;SDS011;9652;49.014;12.052;2024-01-30T11:34:30;17.47;;;12.67;;
19038;SDS011;9652;49.014;12.052;2024-01-30T11:37:03;17.50;;;12.27;;
19038;SDS011;9652;49.014;12.052;2024-01-30T11:39:38;18.77;;;12.77;;
19038;SDS011;9652;49.014;12.052;2024-01-30T11:42:07;22.10;;;13.33;;
19038;SDS011;9652;49.014;12.052;2024-01-30T11:44:37;17.50;;;13.27;;
19038;SDS011;9652;49.014;12.052;2024-01-30T11:47:04;18.67;;;12.10;;
19038;SDS011;9652;49.014;12.052;2024-01-30T11:49:33;19.03;;;12.93;;
19038;SDS011;9652;49.014;12.052;2024-01-30T11:52:01;18.57;;;12.73;;
19038;SDS011;9652;49.014;12.052;2024-01-30T11:54:30;16.33;;;11.73;;
19038;SDS011;9652;49.014;12.052;2024-01-30T11:56:57;22.00;;;12.97;;
19038;SDS011;9652;49.014;12.052;2024-01-30T11:59:24;18.57;;;13.17;;
19038;SDS011;9652;49.014;12.052;2024-01-30T12:01:54;16.50;;;12.90;;
19038;SDS011;9652;49.014;12.052;2024-01-30T12:04:22;18.73;;;12.57;;
19038;SDS011;9652;49.014;12.052;2024-01-30T12:06:50;21.37;;;11.40;;
19038;SDS011;9652;49.014;12.052;2024-01-30T12:09:18;17.77;;;11.50;;
19038;SDS011;9652;49.014;12.052;2024-01-30T12:11:51;17.80;;;11.97;;
19038;SDS011;9652;49.014;12.052;2024-01-30T12:14:19;15.93;;;12.57;;
19038;SDS011;9652;49.014;12.052;2024-01-30T12:16:50;15.87;;;11.53;;
19038;SDS011;9652;49.014;12.052;2024-01-30T12:19:24;19.30;;;12.83;;
19038;SDS011;9652;49.014;12.052;2024-01-30T12:22:10;15.80;;;10.80;;
19038;SDS011;9652;49.014;12.052;2024-01-30T12:24:37;17.03;;;11.83;;
19038;SDS011;9652;49.014;12.052;2024-01-30T12:27:04;14.47;;;9.70;;
19038;SDS011;9652;49.014;12.052;2024-01-30T12:29:32;14.90;;;10.73;;
19038;SDS011;9652;49.014;12.052;2024-01-30T12:31:59;15.53;;;11.27;;
19038;SDS011;9652;49.014;12.052;2024-01-30T12:34:31;17.60;;;12.20;;
19038;SDS011;9652;49.014;12.052;2024-01-30T12:36:58;17.90;;;11.63;;
19038;SDS011;9652;49.014;12.052;2024-01-30T12:39:25;17.33;;;11.50;;
19038;SDS011;9652;49.014;12.052;2024-01-30T12:41:53;18.27;;;11.83;;
19038;SDS011;9652;49.014;12.052;2024-01-30T12:44:20;18.33;;;11.77;;
19038;SDS011;9652;49.014;12.052;2024-01-30T12:46:48;16.37;;;12.10;;
19038;SDS011;9652;49.014;12.052;2024-01-30T12:49:15;16.20;;;12.10;;
19038;SDS011;9652;49.014;12.052;2024-01-30T12:51:44;14.87;;;10.73;;
19038;SDS011;9652;49.014;12.052;2024-01-30T12:54:12;16.37;;;12.00;;
19038;SDS011;9652;49.014;12.052;2024-01-30T12:56:39;18.70;;;11.90;;
19038;SDS011;9652;49.014;12.052;2024-01-30T12:59:07;17.63;;;11.73;;
19038;SDS011;9652;49.014;12.052;2024-01-30T13:01:34;16.30;;;11.47;;
19038;SDS011;9652;49.014;12.052;2024-01-30T13:04:01;15.17;;;11.20;;
19038;SDS011;9652;49.014;12.052;2024-01-30T13:06:29;18.33;;;11.60;;
19038;SDS011;9652;49.014;12.052;2024-01-30T13:08:59;16.40;;;10.87;;
19038;SDS011;9652;49.014;12.052;2024-01-30T13:11:26;17.37;;;12.07;;
19038;SDS011;9652;49.014;12.052;2024-01-30T13:13:53;15.17;;;10.50;;
19038;SDS011;9652;49.014;12.052;2024-01-30T13:16:20;17.70;;;11.53;;
19038;SDS011;9652;49.014;12.052;2024-01-30T13:18:48;14.20;;;10.67;;
19038;SDS011;9652;49.014;12.052;2024-01-30T13:21:15;15.47;;;10.57;;
19038;SDS011;9652;49.014;12.052;2024-01-30T13:23:42;15.67;;;10.70;;
19038;SDS011;9652;49.014;12.052;2024-01-30T13:26:11;12.67;;;9.37;;
19038;SDS011;9652;49.014;12.052;2024-01-30T13:28:38;17.23;;;10.77;;
19038;SDS011;9652;49.014;12.052;2024-01-30T13:31:05;15.30;;;11.97;;
19038;SDS011;9652;49.014;12.052;2024-01-30T13:33:32;14.97;;;9.47;;
19038;SDS011;9652;49.014;12.052;2024-01-30T13:36:00;14.70;;;10.20;;
19038;SDS011;9652;49.014;12.052;2024-01-30T13:38:27;14.33;;;10.90;;
19038;SDS011;9652;49.014;12.052;2024-01-30T13:40:54;15.63;;;11.17;;
19038;SDS011;9652;49.014;12.052;2024-01-30T13:43:23;14.20;;;10.37;;
19038;SDS011;9652;49.014;12.052;2024-01-30T13:45:50;14.83;;;11.60;;
19038;SDS011;9652;49.014;12.052;2024-01-30T13:48:17;16.93;;;11.07;;
19038;SDS011;9652;49.014;12.052;2024-01-30T13:50:45;13.37;;;10.47;;
19038;SDS011;9652;49.014;12.052;2024-01-30T13:53:12;16.60;;;11.40;;
19038;SDS011;9652;49.014;12.052;2024-01-30T13:55:40;15.00;;;12.33;;
19038;SDS011;9652;49.014;12.052;2024-01-30T13:58:07;18.40;;;11.67;;
19038;SDS011;9652;49.014;12.052;2024-01-30T14:00:36;16.07;;;11.73;;
19038;SDS011;9652;49.014;12.052;2024-01-30T14:03:03;18.43;;;12.00;;
19038;SDS011;9652;49.014;12.052;2024-01-30T14:05:31;18.70;;;11.63;;
19038;SDS011;9652;49.014;12.052;2024-01-30T14:07:58;18.00;;;11.13;;
19038;SDS011;9652;49.014;12.052;2024-01-30T14:10:26;14.00;;;10.90;;
19038;SDS011;9652;49.014;12.052;2024-01-30T14:12:53;17.87;;;11.07;;
19038;SDS011;9652;49.014;12.052;2024-01-30T14:15:21;14.83;;;10.67;;
19038;SDS011;9652;49.014;12.052;2024-01-30T14:17:50;17.93;;;11.10;;
19038;SDS011;9652;49.014;12.052;2024-01-30T14:20:17;16.10;;;11.20;;
19038;SDS011;9652;49.014;12.052;2024-01-30T14:22:44;16.90;;;12.10;;
19038;SDS011;9652;49.014;12.052;2024-01-30T14:25:11;16.00;;;12.23;;
19038;SDS011;9652;49.014;12.052;2024-01-30T14:27:38;16.30;;;11.83;;
19038;SDS011;9652;49.014;12.052;2024-01-30T14:30:06;19.17;;;12.67;;
19038;SDS011;9652;49.014;12.052;2024-01-30T14:32:36;17.73;;;12.00;;
19038;SDS011;9652;49.014;12.052;2024-01-30T14:35:09;17.27;;;12.13;;
19038;SDS011;9652;49.014;12.052;2024-01-30T14:37:37;15.67;;;11.63;;
19038;SDS011;9652;49.014;12.052;2024-01-30T14:40:05;18.50;;;12.83;;
19038;SDS011;9652;49.014;12.052;2024-01-30T14:42:33;18.03;;;13.10;;
19038;SDS011;9652;49.014;12.052;2024-01-30T14:45:01;18.00;;;12.10;;
19038;SDS011;9652;49.014;12.052;2024-01-30T14:47:28;18.37;;;12.53;;
19038;SDS011;9652;49.014;12.052;2024-01-30T14:49:56;17.73;;;12.13;;
19038;SDS011;9652;49.014;12.052;2024-01-30T14:52:25;16.17;;;11.73;;
19038;SDS011;9652;49.014;12.052;2024-01-30T14:54:52;16.20;;;11.63;;
19038;SDS011;9652;49.014;12.052;2024-01-30T14:57:19;19.27;;;13.03;;
19038;SDS011;9652;49.014;12.052;2024-01-30T14:59:47;17.07;;;11.57;;
19038;SDS011;9652;49.014;12.052;2024-01-30T15:02:14;22.10;;;12.40;;
19038;SDS011;9652;49.014;12.052;2024-01-30T15:04:42;17.10;;;11.83;;
19038;SDS011;9652;49.014;12.052;2024-01-30T15:07:09;15.37;;;11.80;;
19038;SDS011;9652;49.014;12.052;2024-01-30T15:09:37;17.23;;;12.20;;
19038;SDS011;9652;49.014;12.052;2024-01-30T15:12:05;17.03;;;12.40;;
19038;SDS011;9652;49.014;12.052;2024-01-30T15:14:32;16.77;;;11.37;;
19038;SDS011;9652;49.014;12.052;2024-01-30T15:16:59;17.73;;;12.20;;
19038;SDS011;9652;49.014;12.052;2024-01-30T15:19:27;16.73;;;11.50;;
19038;SDS011;9652;49.014;12.052;2024-01-30T15:21:54;15.93;;;12.33;;
19038;SDS011;9652;49.014;12.052;2024-01-30T15:24:21;18.50;;;11.87;;
19038;SDS011;9652;49.014;12.052;2024-01-30T15:26:51;19.10;;;12.27;;
19038;SDS011;9652;49.014;12.052;2024-01-30T15:29:18;19.40;;;11.90;;
19038;SDS011;9652;49.014;12.052;2024-01-30T15:31:47;22.77;;;12.23;;
19038;SDS011;9652;49.014;12.052;2024-01-30T15:34:15;16.50;;;11.53;;
19038;SDS011;9652;49.014;12.052;2024-01-30T15:36:42;16.20;;;11.43;;
19038;SDS011;9652;49.014;12.052;2024-01-30T15:39:09;15.73;;;11.37;;
19038;SDS011;9652;49.014;12.052;2024-01-30T15:41:36;16.87;;;10.80;;
19038;SDS011;9652;49.014;12.052;2024-01-30T15:44:05;15.43;;;11.43;;
19038;SDS011;9652;49.014;12.052;2024-01-30T15:46:32;15.93;;;11.40;;
19038;SDS011;9652;49.014;12.052;2024-01-30T15:49:00;16.50;;;11.33;;
19038;SDS011;9652;49.014;12.052;2024-01-30T15:51:29;15.73;;;10.67;;
19038;SDS011;9652;49.014;12.052;2024-01-30T15:53:56;15.67;;;10.60;;
19038;SDS011;9652;49.014;12.052;2024-01-30T15:56:23;16.33;;;11.10;;
19038;SDS011;9652;49.014;12.052;2024-01-30T15:58:51;14.73;;;10.63;;
19038;SDS011;9652;49.014;12.052;2024-01-30T16:01:19;19.53;;;12.07;;
19038;SDS011;9652;49.014;12.052;2024-01-30T16:03:46;17.90;;;12.03;;
19038;SDS011;9652;49.014;12.052;2024-01-30T16:06:13;16.77;;;12.10;;
19038;SDS011;9652;49.014;12.052;2024-01-30T16:08:41;17.40;;;12.67;;
19038;SDS011;9652;49.014;12.052;2024-01-30T16:11:08;19.67;;;12.13;;
19038;SDS011;9652;49.014;12.052;2024-01-30T16:13:36;18.90;;;12.60;;
19038;SDS011;9652;49.014;12.052;2024-01-30T16:16:03;21.13;;;13.10;;
19038;SDS011;9652;49.014;12.052;2024-01-30T16:18:34;20.57;;;12.43;;
19038;SDS011;9652;49.014;12.052;2024-01-30T16:21:10;18.57;;;12.37;;
